This is the latest recevied weather packets stored in our database for station/object KO4RMV-3. If no packets are shown the sender has not sent any weather packets the latest 1 day(s).
| Time | Temp. | Humidity | Pressure | Rain* | Wind** | Luminosity | Snow |
|---|---|---|---|---|---|---|---|
| 1778096706 | 20° C | 81% | - | 0 mm | - | - | - |
| 1778094906 | 19.44° C | 83% | - | 0 mm | - | - | - |
| 1778094006 | 18.89° C | 85% | - | 0 mm | - | - | - |
| 1778093106 | 18.89° C | 84% | - | 0 mm | - | - | - |
| 1778092206 | 19.44° C | 82% | - | 0 mm | - | - | - |
| 1778080506 | 16.67° C | 89% | - | 0 mm | - | - | - |
| 1778079606 | 16.67° C | 90% | - | 3.81 mm | - | - | - |
| 1778078706 | 16.67° C | 87% | - | 6.35 mm | - | - | - |
| 1778077806 | 17.22° C | 84% | - | 1.27 mm | - | - | - |
| 1778066105 | 17.78° C | 74% | - | 0 mm | - | - | - |
| 1778064306 | 17.78° C | 74% | - | 0 mm | - | - | - |
| 1778063406 | 17.78° C | 74% | - | 0 mm | - | - | - |
| 1778062506 | 17.78° C | 74% | - | 0 mm | - | - | - |
| 1778049906 | 18.89° C | 72% | - | 0 mm | - | - | - |
| 1778048106 | 19.44° C | 72% | - | 0 mm | - | - | - |
| 1778047206 | 19.44° C | 71% | - | 0 mm | - | - | - |
| 1778046306 | 19.44° C | 71% | - | 0 mm | - | - | - |
| 1778045406 | 20° C | 70% | - | 0 mm | - | - | - |
| 1778035506 | 22.78° C | 53% | - | 0 mm | - | - | - |
| 1778034606 | 22.78° C | 52% | - | 0 mm | - | - | - |
| 1778033706 | 22.78° C | 51% | - | 0 mm | - | - | - |
| 1778032806 | 22.78° C | 51% | - | 0 mm | - | - | - |
| 1778031906 | 23.33° C | 50% | - | 0 mm | - | - | - |
| 1778031006 | 23.33° C | 49% | - | 0 mm | - | - | - |
| 1778017506 | 27.78° C | 31% | - | 0 mm | - | - | - |
* Rain latest hour (hover to see other rain measurements)
** Current wind speed in m/s (hover to see current wind gust speed)